createdAt,value
2017-08-17T00:00:08.228Z,96.9
2017-08-17T00:01:09.850Z,96.6
2017-08-17T00:02:11.477Z,96.5
2017-08-17T00:03:13.104Z,96.6
2017-08-17T00:04:14.730Z,96.9
2017-08-17T00:05:16.344Z,97.4
2017-08-17T00:06:17.969Z,97.7
2017-08-17T00:07:19.595Z,97.3
2017-08-17T00:08:21.213Z,98.0
2017-08-17T00:09:22.831Z,97.9
2017-08-17T00:10:24.464Z,98.1
2017-08-17T00:11:26.088Z,97.8
2017-08-17T00:12:27.713Z,97.8
2017-08-17T00:13:29.346Z,98.5
2017-08-17T00:14:30.968Z,98.5
2017-08-17T00:15:32.592Z,98.5
2017-08-17T00:16:34.207Z,99.2
2017-08-17T00:17:35.827Z,98.8
2017-08-17T00:18:37.463Z,98.7
2017-08-17T00:19:39.084Z,99.1
2017-08-17T00:20:40.704Z,98.9
2017-08-17T00:21:42.329Z,99.4
2017-08-17T00:22:43.967Z,99.9
2017-08-17T00:23:45.598Z,99.7
2017-08-17T00:24:47.220Z,99.8
2017-08-17T00:25:48.844Z,99.9
2017-08-17T00:26:51.884Z,99.7
2017-08-17T00:27:53.496Z,99.2
2017-08-17T00:28:55.113Z,99.4
2017-08-17T00:29:56.730Z,99.2
2017-08-17T00:30:58.352Z,99.0
2017-08-17T00:31:59.980Z,99.0
2017-08-17T00:33:01.609Z,99.3
2017-08-17T00:34:03.241Z,99.2
2017-08-17T00:35:04.860Z,99.0
2017-08-17T00:36:06.486Z,100.0
2017-08-17T00:37:08.111Z,99.9
2017-08-17T00:38:09.733Z,99.4
2017-08-17T00:39:11.351Z,99.0
2017-08-17T00:40:12.984Z,99.0
2017-08-17T00:41:14.609Z,99.6
2017-08-17T00:42:16.230Z,99.7
2017-08-17T00:43:17.848Z,99.8
2017-08-17T00:44:19.472Z,99.6
2017-08-17T00:45:21.100Z,99.1
2017-08-17T00:46:22.720Z,99.1
2017-08-17T00:47:24.347Z,100.0
2017-08-17T00:48:25.976Z,99.7
2017-08-17T00:49:27.592Z,99.8
2017-08-17T00:50:29.211Z,99.9
2017-08-17T00:51:30.842Z,100.0
2017-08-17T00:52:32.469Z,100.0
2017-08-17T00:53:34.088Z,100.0
2017-08-17T00:54:35.709Z,99.8
2017-08-17T00:55:37.343Z,100.0
2017-08-17T00:56:38.965Z,100.0
2017-08-17T00:57:40.585Z,100.0
2017-08-17T00:58:42.208Z,100.0
2017-08-17T00:59:43.833Z,100.0
2017-08-17T01:00:45.465Z,100.0
2017-08-17T01:01:47.083Z,100.0
2017-08-17T01:02:48.711Z,100.0
2017-08-17T01:03:50.331Z,100.0
2017-08-17T01:04:51.951Z,100.0
2017-08-17T01:05:53.582Z,100.0
2017-08-17T01:06:55.211Z,100.0
2017-08-17T01:07:56.829Z,99.4
2017-08-17T01:08:58.455Z,99.5
2017-08-17T01:10:00.083Z,99.6
2017-08-17T01:11:01.709Z,99.8
2017-08-17T01:12:03.329Z,100.0
2017-08-17T01:13:04.950Z,99.9
2017-08-17T01:14:06.578Z,99.8
2017-08-17T01:15:08.214Z,100.0
2017-08-17T01:16:09.834Z,99.1
2017-08-17T01:17:11.457Z,99.2
2017-08-17T01:18:13.092Z,99.8
2017-08-17T01:19:14.707Z,99.8
2017-08-17T01:20:16.326Z,99.6
2017-08-17T01:21:17.959Z,99.7
2017-08-17T01:22:19.584Z,100.0
2017-08-17T01:23:21.208Z,99.1
2017-08-17T01:24:22.830Z,99.0
2017-08-17T01:25:24.454Z,98.9
2017-08-17T01:26:26.083Z,98.8
2017-08-17T01:27:27.701Z,98.7
2017-08-17T01:28:29.324Z,98.7
2017-08-17T01:29:30.949Z,99.2
2017-08-17T01:30:32.578Z,98.8
2017-08-17T01:31:34.215Z,98.7
2017-08-17T01:32:35.831Z,98.5
2017-08-17T01:33:37.455Z,99.1
2017-08-17T01:34:39.076Z,98.7
2017-08-17T01:35:40.698Z,99.1
2017-08-17T01:36:42.329Z,99.9
2017-08-17T01:37:43.945Z,99.7
2017-08-17T01:38:45.569Z,98.9
2017-08-17T01:39:47.198Z,99.3
2017-08-17T01:40:48.820Z,99.4
2017-08-17T01:41:50.443Z,99.2
2017-08-17T01:42:52.063Z,99.3
2017-08-17T01:43:53.695Z,99.7
2017-08-17T01:44:55.318Z,99.8
2017-08-17T01:45:56.940Z,99.5
2017-08-17T01:46:58.559Z,99.2
2017-08-17T01:48:00.175Z,99.4
2017-08-17T01:49:01.805Z,99.2
2017-08-17T01:50:03.422Z,98.6
2017-08-17T01:51:05.045Z,98.8
2017-08-17T01:52:06.678Z,98.9
2017-08-17T01:53:08.303Z,98.7
2017-08-17T01:54:09.928Z,98.5
2017-08-17T01:55:11.552Z,98.7
2017-08-17T01:56:15.999Z,98.6
2017-08-17T01:57:17.629Z,98.8
2017-08-17T01:58:19.246Z,98.3
2017-08-17T01:59:20.868Z,98.8
2017-08-17T02:00:22.508Z,99.2
2017-08-17T02:01:24.152Z,98.4
2017-08-17T02:02:25.774Z,98.7
2017-08-17T02:03:27.392Z,98.4
2017-08-17T02:04:29.016Z,98.3
2017-08-17T02:05:30.642Z,98.8
2017-08-17T02:06:32.273Z,98.8
2017-08-17T02:07:33.892Z,98.8
2017-08-17T02:08:35.511Z,98.8
2017-08-17T02:09:37.140Z,98.7
2017-08-17T02:10:38.764Z,98.5
2017-08-17T02:11:40.381Z,99.1
2017-08-17T02:12:42.002Z,98.7
2017-08-17T02:13:43.633Z,98.8
2017-08-17T02:14:45.248Z,99.2
2017-08-17T02:15:46.865Z,98.8
2017-08-17T02:16:48.483Z,98.6
2017-08-17T02:17:50.109Z,99.1
2017-08-17T02:18:51.738Z,98.9
2017-08-17T02:19:53.356Z,99.0
2017-08-17T02:20:54.974Z,99.2
2017-08-17T02:21:56.612Z,99.8
2017-08-17T02:22:58.226Z,99.0
2017-08-17T02:23:59.845Z,99.2
2017-08-17T02:25:01.466Z,99.6
2017-08-17T02:26:03.084Z,99.2
2017-08-17T02:27:04.714Z,100.0
2017-08-17T02:28:06.338Z,99.4
2017-08-17T02:29:07.957Z,99.9
2017-08-17T02:30:09.576Z,99.9
2017-08-17T02:31:11.200Z,99.9
2017-08-17T02:32:12.827Z,99.5
2017-08-17T02:33:14.445Z,99.6
2017-08-17T02:34:16.071Z,100.0
2017-08-17T02:35:17.699Z,100.0
2017-08-17T02:36:19.329Z,100.0
2017-08-17T02:37:20.947Z,100.0
2017-08-17T02:38:22.565Z,99.7
2017-08-17T02:39:24.196Z,100.0
2017-08-17T02:40:25.818Z,100.0
2017-08-17T02:41:27.435Z,100.0
2017-08-17T02:42:29.058Z,100.0
2017-08-17T02:43:30.686Z,100.0
2017-08-17T02:44:32.311Z,100.0
2017-08-17T02:45:33.933Z,100.0
2017-08-17T02:46:35.554Z,100.0
2017-08-17T02:47:37.188Z,100.0
2017-08-17T02:48:38.813Z,100.0
2017-08-17T02:49:40.430Z,100.0
2017-08-17T02:50:42.053Z,100.0
2017-08-17T02:51:43.684Z,100.0
2017-08-17T02:52:45.309Z,100.0
2017-08-17T02:53:46.922Z,100.0
2017-08-17T02:54:48.544Z,100.0
2017-08-17T02:55:50.171Z,100.0
2017-08-17T02:56:51.806Z,100.0
2017-08-17T02:57:53.438Z,100.0
2017-08-17T02:58:55.055Z,100.0
2017-08-17T02:59:56.677Z,100.0
2017-08-17T03:00:58.301Z,100.0
2017-08-17T03:01:59.925Z,100.0
2017-08-17T03:03:01.542Z,100.0
2017-08-17T03:04:03.170Z,100.0
2017-08-17T03:05:04.800Z,100.0
2017-08-17T03:06:06.422Z,100.0
2017-08-17T03:07:08.043Z,100.0
2017-08-17T03:08:09.661Z,100.0
2017-08-17T03:09:11.294Z,100.0
2017-08-17T03:10:12.924Z,100.0
2017-08-17T03:11:14.545Z,100.0
2017-08-17T03:12:16.168Z,100.0
2017-08-17T03:13:17.797Z,100.0
2017-08-17T03:14:19.413Z,100.0
2017-08-17T03:15:21.032Z,100.0
2017-08-17T03:16:22.651Z,100.0
2017-08-17T03:17:24.284Z,100.0
2017-08-17T03:18:25.918Z,100.0
2017-08-17T03:19:27.539Z,100.0
2017-08-17T03:20:29.169Z,100.0
2017-08-17T03:21:30.792Z,100.0
2017-08-17T03:22:32.419Z,100.0
2017-08-17T03:23:34.037Z,100.0
2017-08-17T03:24:35.661Z,100.0
2017-08-17T03:25:37.297Z,100.0
2017-08-17T03:26:38.920Z,100.0
2017-08-17T03:27:40.544Z,100.0
2017-08-17T03:28:42.163Z,100.0
2017-08-17T03:29:43.792Z,100.0
2017-08-17T03:30:45.424Z,100.0
2017-08-17T03:31:47.054Z,100.0
2017-08-17T03:32:48.676Z,100.0
2017-08-17T03:33:50.301Z,100.0
2017-08-17T03:34:51.921Z,100.0
2017-08-17T03:35:53.549Z,100.0
2017-08-17T03:36:55.169Z,100.0
2017-08-17T03:37:56.790Z,100.0
2017-08-17T03:38:58.417Z,100.0
2017-08-17T03:40:00.048Z,100.0
2017-08-17T03:41:01.673Z,100.0
2017-08-17T03:42:03.296Z,100.0
2017-08-17T03:43:04.923Z,100.0
2017-08-17T03:44:06.547Z,100.0
2017-08-17T03:45:08.166Z,100.0
2017-08-17T03:46:09.788Z,100.0
2017-08-17T03:47:11.420Z,100.0
2017-08-17T03:48:13.046Z,100.0
2017-08-17T03:49:14.663Z,100.0
2017-08-17T03:50:16.286Z,100.0
2017-08-17T03:51:17.930Z,100.0
2017-08-17T03:52:19.555Z,100.0
2017-08-17T03:53:21.175Z,100.0
2017-08-17T03:54:22.795Z,100.0
2017-08-17T03:55:24.430Z,100.0
2017-08-17T03:56:26.049Z,100.0
2017-08-17T03:57:27.669Z,100.0
2017-08-17T03:58:29.290Z,100.0
2017-08-17T03:59:30.916Z,100.0
2017-08-17T04:00:32.553Z,100.0
2017-08-17T04:01:34.169Z,100.0
2017-08-17T04:02:35.793Z,100.0
2017-08-17T04:03:37.438Z,100.0
2017-08-17T04:04:39.058Z,100.0
2017-08-17T04:05:40.680Z,100.0
2017-08-17T04:06:42.308Z,100.0
2017-08-17T04:07:43.928Z,100.0
2017-08-17T04:08:45.563Z,100.0
2017-08-17T04:09:47.190Z,100.0
2017-08-17T04:10:48.808Z,100.0
2017-08-17T04:11:50.435Z,100.0
2017-08-17T04:12:52.056Z,100.0
2017-08-17T04:13:53.677Z,100.0
2017-08-17T04:14:55.312Z,100.0
2017-08-17T04:15:56.945Z,100.0
2017-08-17T04:16:58.568Z,100.0
2017-08-17T04:18:00.189Z,100.0
2017-08-17T04:19:01.828Z,100.0
2017-08-17T04:20:03.451Z,100.0
2017-08-17T04:21:05.073Z,100.0
2017-08-17T04:22:06.695Z,100.0
2017-08-17T04:23:08.328Z,100.0
2017-08-17T04:24:09.951Z,100.0
2017-08-17T04:25:11.578Z,100.0
2017-08-17T04:26:13.206Z,100.0
2017-08-17T04:27:14.829Z,100.0
2017-08-17T04:28:16.461Z,100.0
2017-08-17T04:29:18.089Z,100.0
2017-08-17T04:30:19.714Z,100.0
2017-08-17T04:31:21.344Z,100.0
2017-08-17T04:32:22.970Z,100.0
2017-08-17T04:33:24.590Z,100.0
2017-08-17T04:34:26.211Z,100.0
2017-08-17T04:35:27.846Z,100.0
2017-08-17T04:36:29.469Z,100.0
2017-08-17T04:37:31.095Z,100.0
2017-08-17T04:38:32.723Z,100.0
2017-08-17T04:39:34.349Z,100.0
2017-08-17T04:40:35.975Z,100.0
2017-08-17T04:41:37.600Z,100.0
2017-08-17T04:42:39.220Z,100.0
2017-08-17T04:43:40.858Z,100.0
2017-08-17T04:44:42.483Z,100.0
2017-08-17T04:45:44.113Z,100.0
2017-08-17T04:46:45.737Z,100.0
2017-08-17T04:47:47.373Z,100.0
2017-08-17T04:48:49.007Z,100.0
2017-08-17T04:49:50.630Z,100.0
2017-08-17T04:50:52.255Z,100.0
2017-08-17T04:51:53.883Z,100.0
2017-08-17T04:52:55.510Z,100.0
2017-08-17T04:53:57.134Z,100.0
2017-08-17T04:54:59.402Z,100.0
2017-08-17T04:56:01.034Z,100.0
2017-08-17T04:57:02.671Z,100.0
2017-08-17T04:58:04.293Z,100.0
2017-08-17T04:59:05.918Z,100.0
2017-08-17T05:00:07.552Z,100.0
2017-08-17T05:01:09.176Z,100.0
2017-08-17T05:02:10.797Z,99.7
2017-08-17T05:03:12.421Z,99.2
2017-08-17T05:04:14.051Z,99.4
2017-08-17T05:05:15.676Z,99.2
2017-08-17T05:06:17.306Z,99.2
2017-08-17T05:07:18.929Z,99.0
2017-08-17T05:08:20.562Z,99.1
2017-08-17T05:09:22.184Z,98.9
2017-08-17T05:10:23.814Z,98.8
2017-08-17T05:11:25.446Z,98.9
2017-08-17T05:12:27.066Z,99.3
2017-08-17T05:13:28.697Z,98.7
2017-08-17T05:14:30.323Z,98.8
2017-08-17T05:15:31.945Z,98.7
2017-08-17T05:16:33.579Z,98.5
2017-08-17T05:17:35.203Z,98.4
2017-08-17T05:18:36.840Z,97.8
2017-08-17T05:19:38.469Z,97.6
2017-08-17T05:20:40.093Z,97.1
2017-08-17T05:21:41.721Z,96.6
2017-08-17T05:22:43.659Z,96.7
2017-08-17T05:23:45.297Z,96.6
2017-08-17T05:24:47.532Z,96.4
2017-08-17T05:25:49.536Z,96.0
2017-08-17T05:26:51.597Z,95.7
2017-08-17T05:27:53.593Z,95.8
2017-08-17T05:28:55.455Z,95.8
2017-08-17T05:29:57.502Z,95.7
2017-08-17T05:30:59.407Z,95.5
2017-08-17T05:32:01.031Z,95.3
2017-08-17T05:33:02.661Z,95.7
2017-08-17T05:34:04.284Z,94.5
2017-08-17T05:35:05.916Z,94.2
2017-08-17T05:36:07.560Z,94.4
2017-08-17T05:37:09.184Z,94.0
2017-08-17T05:38:10.811Z,93.2
2017-08-17T05:39:12.449Z,93.2
2017-08-17T05:40:14.079Z,91.8
2017-08-17T05:41:15.704Z,91.9
2017-08-17T05:42:17.333Z,90.7
2017-08-17T05:43:18.974Z,90.9
2017-08-17T05:44:20.614Z,90.5
2017-08-17T05:45:22.229Z,89.8
2017-08-17T05:46:23.854Z,89.7
2017-08-17T05:47:25.491Z,89.1
2017-08-17T05:48:27.120Z,88.2
2017-08-17T05:49:28.748Z,88.0
2017-08-17T05:50:30.376Z,87.9
2017-08-17T05:51:32.008Z,87.3
2017-08-17T05:52:33.638Z,86.7
2017-08-17T05:53:35.263Z,86.9
2017-08-17T05:54:36.895Z,86.2
2017-08-17T05:55:38.527Z,86.3
2017-08-17T05:56:40.165Z,85.9
2017-08-17T05:57:41.789Z,85.9
2017-08-17T05:58:43.424Z,85.4
2017-08-17T05:59:45.053Z,85.2
2017-08-17T06:00:46.684Z,85.1
2017-08-17T06:01:48.307Z,84.9
2017-08-17T06:02:49.973Z,85.0
2017-08-17T06:03:51.606Z,85.1
2017-08-17T06:04:53.242Z,85.1
2017-08-17T06:05:54.936Z,84.3
2017-08-17T06:06:56.570Z,84.8
2017-08-17T06:07:58.199Z,84.7
2017-08-17T06:08:59.834Z,84.7
2017-08-17T06:10:01.458Z,84.5
2017-08-17T06:11:03.084Z,84.0
2017-08-17T06:12:04.784Z,84.2
2017-08-17T06:13:06.413Z,84.1
2017-08-17T06:14:08.036Z,84.1
2017-08-17T06:15:09.662Z,83.7
2017-08-17T06:16:11.294Z,83.7
2017-08-17T06:17:12.931Z,83.3
2017-08-17T06:18:14.556Z,83.4
2017-08-17T06:19:16.249Z,83.2
2017-08-17T06:20:17.874Z,82.5
2017-08-17T06:21:19.505Z,82.5
2017-08-17T06:22:21.141Z,81.6
2017-08-17T06:23:22.763Z,79.7
2017-08-17T06:24:24.398Z,77.9
2017-08-17T06:25:26.079Z,76.7
2017-08-17T06:26:27.708Z,75.0
2017-08-17T06:27:29.335Z,74.3
2017-08-17T06:28:30.968Z,72.8
2017-08-17T06:29:32.601Z,71.0
2017-08-17T06:30:34.227Z,70.1
2017-08-17T06:31:35.855Z,69.5
2017-08-17T06:32:37.493Z,68.8
2017-08-17T06:33:39.125Z,68.7
2017-08-17T06:34:40.747Z,67.1
2017-08-17T06:35:42.379Z,66.6
2017-08-17T06:36:44.005Z,65.7
2017-08-17T06:37:45.655Z,65.7
2017-08-17T06:38:47.286Z,63.7
2017-08-17T06:39:48.916Z,63.3
2017-08-17T06:40:50.553Z,63.6
2017-08-17T06:41:52.188Z,63.3
2017-08-17T06:42:53.813Z,63.6
2017-08-17T06:43:55.439Z,62.6
2017-08-17T06:44:57.084Z,60.7
2017-08-17T06:45:58.709Z,60.9
2017-08-17T06:47:00.338Z,60.4
2017-08-17T06:48:01.980Z,61.2
2017-08-17T06:49:03.611Z,60.1
2017-08-17T06:50:05.246Z,60.5
2017-08-17T06:51:06.866Z,60.1
2017-08-17T06:52:08.500Z,60.2
2017-08-17T06:53:10.136Z,58.6
2017-08-17T06:54:11.765Z,54.6
2017-08-17T06:55:13.399Z,53.8
2017-08-17T06:56:15.030Z,52.9
2017-08-17T06:57:16.668Z,52.9
2017-08-17T06:58:18.296Z,54.0
2017-08-17T06:59:19.928Z,52.9
2017-08-17T07:00:21.570Z,52.5
2017-08-17T07:01:23.205Z,52.7
2017-08-17T07:02:24.836Z,53.0
2017-08-17T07:03:26.463Z,53.1
2017-08-17T07:04:28.097Z,52.6
2017-08-17T07:05:29.734Z,53.8
2017-08-17T07:06:31.361Z,53.9
2017-08-17T07:07:32.994Z,51.9
2017-08-17T07:08:34.637Z,52.8
2017-08-17T07:09:36.272Z,53.4
2017-08-17T07:10:37.898Z,53.2
2017-08-17T07:11:39.528Z,52.2
2017-08-17T07:12:41.169Z,52.5
2017-08-17T07:13:42.804Z,52.8
2017-08-17T07:14:44.434Z,52.9
2017-08-17T07:15:46.064Z,53.8
2017-08-17T07:16:47.727Z,54.6
2017-08-17T07:17:49.338Z,54.1
2017-08-17T07:18:50.963Z,55.8
2017-08-17T07:19:52.593Z,57.3
2017-08-17T07:20:54.237Z,57.1
2017-08-17T07:21:55.870Z,57.2
2017-08-17T07:22:57.501Z,57.8
2017-08-17T07:23:59.138Z,57.1
2017-08-17T07:25:00.763Z,57.0
2017-08-17T07:26:02.406Z,58.0
2017-08-17T07:27:04.032Z,58.3
2017-08-17T07:28:05.663Z,56.2
2017-08-17T07:29:07.298Z,56.2
2017-08-17T07:30:08.929Z,56.6
2017-08-17T07:31:10.561Z,58.1
2017-08-17T07:32:12.197Z,58.6
2017-08-17T07:33:13.835Z,60.5
2017-08-17T07:34:15.461Z,60.0
2017-08-17T07:35:17.090Z,58.8
2017-08-17T07:36:18.725Z,58.5
2017-08-17T07:37:20.355Z,58.8
2017-08-17T07:38:21.994Z,60.4
2017-08-17T07:39:23.616Z,59.7
2017-08-17T07:40:25.255Z,59.3
2017-08-17T07:41:26.892Z,60.9
2017-08-17T07:42:28.524Z,59.4
2017-08-17T07:43:30.155Z,59.3
2017-08-17T07:44:31.782Z,60.9
2017-08-17T07:45:33.423Z,59.1
2017-08-17T07:46:35.048Z,60.9
2017-08-17T07:47:36.678Z,59.9
2017-08-17T07:48:38.308Z,61.0
2017-08-17T07:49:39.940Z,60.5
2017-08-17T07:50:41.569Z,61.9
2017-08-17T07:51:43.196Z,60.7
2017-08-17T07:52:44.837Z,60.8
2017-08-17T07:53:46.465Z,61.4
2017-08-17T07:54:48.093Z,60.9
2017-08-17T07:55:49.730Z,61.1
2017-08-17T07:56:51.359Z,62.0
2017-08-17T07:57:52.984Z,61.5
2017-08-17T07:58:54.615Z,61.7
2017-08-17T07:59:56.252Z,62.7
2017-08-17T08:00:57.888Z,61.4
2017-08-17T08:01:59.516Z,61.6
2017-08-17T08:03:01.143Z,60.3
2017-08-17T08:04:02.778Z,60.9
2017-08-17T08:05:04.415Z,60.0
2017-08-17T08:06:06.043Z,59.8
2017-08-17T08:07:07.674Z,59.9
2017-08-17T08:08:09.309Z,59.8
2017-08-17T08:09:10.940Z,60.5
2017-08-17T08:10:12.566Z,59.6
2017-08-17T08:11:14.195Z,59.7
2017-08-17T08:12:15.847Z,60.1
2017-08-17T08:13:17.466Z,59.6
2017-08-17T08:14:19.096Z,59.9
2017-08-17T08:15:20.724Z,59.2
2017-08-17T08:16:22.363Z,58.4
2017-08-17T08:17:23.994Z,58.1
2017-08-17T08:18:25.640Z,56.2
2017-08-17T08:19:27.252Z,56.8
2017-08-17T08:20:28.894Z,55.7
2017-08-17T08:21:30.529Z,54.8
2017-08-17T08:22:32.153Z,52.6
2017-08-17T08:23:33.782Z,52.0
2017-08-17T08:24:35.415Z,49.8
2017-08-17T08:25:37.053Z,48.7
2017-08-17T08:26:38.683Z,46.5
2017-08-17T08:27:40.329Z,47.5
2017-08-17T08:28:41.961Z,46.1
2017-08-17T08:29:43.590Z,45.1
2017-08-17T08:30:45.224Z,46.2
2017-08-17T08:31:46.860Z,46.8
2017-08-17T08:32:48.500Z,45.1
2017-08-17T08:33:50.139Z,45.6
2017-08-17T08:34:51.772Z,45.2
2017-08-17T08:35:53.412Z,46.5
2017-08-17T08:36:55.047Z,47.7
2017-08-17T08:37:56.674Z,47.0
2017-08-17T08:38:58.311Z,46.9
2017-08-17T08:39:59.943Z,47.5
2017-08-17T08:41:01.579Z,48.0
2017-08-17T08:42:03.211Z,48.7
2017-08-17T08:43:04.848Z,49.0
2017-08-17T08:44:06.483Z,48.9
2017-08-17T08:45:08.119Z,49.4
2017-08-17T08:46:09.745Z,48.6
2017-08-17T08:47:11.377Z,48.2
2017-08-17T08:48:13.022Z,48.5
2017-08-17T08:49:14.657Z,49.4
2017-08-17T08:50:16.291Z,49.0
2017-08-17T08:51:17.917Z,49.9
2017-08-17T08:52:19.558Z,50.0
2017-08-17T08:53:21.205Z,49.9
2017-08-17T08:54:22.830Z,50.5
2017-08-17T08:55:24.464Z,50.6
2017-08-17T08:56:26.102Z,50.6
2017-08-17T08:57:27.752Z,50.0
2017-08-17T08:58:29.369Z,50.6
2017-08-17T08:59:30.999Z,50.4
2017-08-17T09:00:32.641Z,50.6
2017-08-17T09:01:34.276Z,51.1
2017-08-17T09:02:35.906Z,51.0
2017-08-17T09:03:37.549Z,50.9
2017-08-17T09:04:39.180Z,52.0
2017-08-17T09:05:40.811Z,50.9
2017-08-17T09:06:42.445Z,52.4
2017-08-17T09:07:44.074Z,51.8
2017-08-17T09:08:45.710Z,50.9
2017-08-17T09:09:47.357Z,50.7
2017-08-17T09:10:48.986Z,50.9
2017-08-17T09:11:50.619Z,51.1
2017-08-17T09:12:52.258Z,51.9
2017-08-17T09:13:53.892Z,51.8
2017-08-17T09:14:55.521Z,51.9
2017-08-17T09:15:57.156Z,52.6
2017-08-17T09:16:58.793Z,52.5
2017-08-17T09:18:00.436Z,53.0
2017-08-17T09:19:02.067Z,53.7
2017-08-17T09:20:03.728Z,53.2
2017-08-17T09:21:05.352Z,53.8
2017-08-17T09:22:06.986Z,54.5
2017-08-17T09:23:08.626Z,55.7
2017-08-17T09:24:10.258Z,54.8
2017-08-17T09:25:11.901Z,55.5
2017-08-17T09:26:13.536Z,56.2
2017-08-17T09:27:15.164Z,55.4
2017-08-17T09:28:16.870Z,55.5
2017-08-17T09:29:18.511Z,55.7
2017-08-17T09:30:20.144Z,54.8
2017-08-17T09:31:21.772Z,55.8
2017-08-17T09:32:23.409Z,55.7
2017-08-17T09:33:25.039Z,55.8
2017-08-17T09:34:26.670Z,55.6
2017-08-17T09:35:28.307Z,54.6
2017-08-17T09:36:29.945Z,55.7
2017-08-17T09:37:31.573Z,55.3
2017-08-17T09:38:33.206Z,56.0
2017-08-17T09:39:34.846Z,55.8
2017-08-17T09:40:36.488Z,56.4
2017-08-17T09:41:38.113Z,56.0
2017-08-17T09:42:39.746Z,56.0
2017-08-17T09:43:41.382Z,56.2
2017-08-17T09:44:43.016Z,56.3
2017-08-17T09:45:44.642Z,56.0
2017-08-17T09:46:46.275Z,56.2
2017-08-17T09:47:47.919Z,55.9
2017-08-17T09:48:49.558Z,55.7
2017-08-17T09:49:51.187Z,56.0
2017-08-17T09:50:52.816Z,55.9
2017-08-17T09:51:54.455Z,55.8
2017-08-17T09:52:56.089Z,56.4
2017-08-17T09:53:57.721Z,55.9
2017-08-17T09:54:59.352Z,56.8
2017-08-17T09:56:00.992Z,56.3
2017-08-17T09:57:02.621Z,56.3
2017-08-17T09:58:04.249Z,56.2
2017-08-17T09:59:05.881Z,56.8
2017-08-17T10:00:07.523Z,55.9
2017-08-17T10:01:09.163Z,55.9
2017-08-17T10:02:10.795Z,56.0
2017-08-17T10:03:12.424Z,56.9
2017-08-17T10:04:14.057Z,56.4
2017-08-17T10:05:15.692Z,56.1
2017-08-17T10:06:17.323Z,56.0
2017-08-17T10:07:18.955Z,56.1
2017-08-17T10:08:20.597Z,56.4
2017-08-17T10:09:22.230Z,56.7
2017-08-17T10:10:23.874Z,56.8
2017-08-17T10:11:25.513Z,55.9
2017-08-17T10:12:27.139Z,55.5
2017-08-17T10:13:28.781Z,54.9
2017-08-17T10:14:30.408Z,55.3
2017-08-17T10:15:32.042Z,56.1
2017-08-17T10:16:34.108Z,54.9
2017-08-17T10:17:35.739Z,55.4
2017-08-17T10:18:37.368Z,53.4
2017-08-17T10:19:38.996Z,53.4
2017-08-17T10:20:40.636Z,53.9
2017-08-17T10:21:42.277Z,53.8
2017-08-17T10:22:43.907Z,53.4
2017-08-17T10:23:45.543Z,53.2
2017-08-17T10:24:47.176Z,53.6
2017-08-17T10:25:48.808Z,53.5
2017-08-17T10:26:50.446Z,54.0
2017-08-17T10:27:52.081Z,54.5
2017-08-17T10:28:53.713Z,54.1
2017-08-17T10:29:55.344Z,54.1
2017-08-17T10:30:56.978Z,53.3
2017-08-17T10:31:58.608Z,54.5
2017-08-17T10:33:00.251Z,54.3
2017-08-17T10:34:01.894Z,54.3
2017-08-17T10:35:03.520Z,53.5
2017-08-17T10:36:05.154Z,53.7
2017-08-17T10:37:06.792Z,53.2
2017-08-17T10:38:08.428Z,53.3
2017-08-17T10:39:10.056Z,53.7
2017-08-17T10:40:11.686Z,53.7
2017-08-17T10:41:13.329Z,53.0
2017-08-17T10:42:14.970Z,52.1
2017-08-17T10:43:16.599Z,52.8
2017-08-17T10:44:18.243Z,52.3
2017-08-17T10:45:19.879Z,52.0
2017-08-17T10:46:21.517Z,49.5
2017-08-17T10:47:23.144Z,50.8
2017-08-17T10:48:24.776Z,50.4
2017-08-17T10:49:26.412Z,50.7
2017-08-17T10:50:28.047Z,51.7
2017-08-17T10:51:29.679Z,51.9
2017-08-17T10:52:31.311Z,51.6
2017-08-17T10:53:32.950Z,51.4
2017-08-17T10:54:34.589Z,52.8
2017-08-17T10:55:36.217Z,51.1
2017-08-17T10:56:37.849Z,51.7
2017-08-17T10:57:39.485Z,50.9
2017-08-17T10:58:41.114Z,50.2
2017-08-17T10:59:42.750Z,49.7
2017-08-17T11:00:44.386Z,48.4
2017-08-17T11:01:46.025Z,48.4
2017-08-17T11:02:47.658Z,48.1
2017-08-17T11:03:49.288Z,48.1
2017-08-17T11:04:50.920Z,48.0
2017-08-17T11:05:52.571Z,48.5
2017-08-17T11:06:54.213Z,49.5
2017-08-17T11:07:55.841Z,50.0
2017-08-17T11:08:57.481Z,49.5
2017-08-17T11:09:59.114Z,49.3
2017-08-17T11:11:00.747Z,49.8
2017-08-17T11:12:02.378Z,50.4
2017-08-17T11:13:04.011Z,50.9
2017-08-17T11:14:05.656Z,51.3
2017-08-17T11:15:07.317Z,49.8
2017-08-17T11:16:08.935Z,50.1
2017-08-17T11:17:10.564Z,50.0
2017-08-17T11:18:12.193Z,50.1
2017-08-17T11:19:13.828Z,50.2
2017-08-17T11:20:15.461Z,49.7
2017-08-17T11:21:17.105Z,48.9
2017-08-17T11:22:18.738Z,48.4
2017-08-17T11:23:20.374Z,48.3
2017-08-17T11:24:22.001Z,48.6
2017-08-17T11:25:23.633Z,48.1
2017-08-17T11:26:25.276Z,47.2
2017-08-17T11:27:26.921Z,46.8
2017-08-17T11:28:28.554Z,46.3
2017-08-17T11:29:30.190Z,45.6
2017-08-17T11:30:31.822Z,44.4
2017-08-17T11:31:33.457Z,44.9
2017-08-17T11:32:35.138Z,45.5
2017-08-17T11:33:36.769Z,45.5
2017-08-17T11:34:38.404Z,43.8
2017-08-17T11:35:40.039Z,42.9
2017-08-17T11:36:41.671Z,43.9
2017-08-17T11:37:43.308Z,43.6
2017-08-17T11:38:44.947Z,43.4
2017-08-17T11:39:46.589Z,44.2
2017-08-17T11:40:48.220Z,44.7
2017-08-17T11:41:49.855Z,45.5
2017-08-17T11:42:51.499Z,46.8
2017-08-17T11:43:53.127Z,48.0
2017-08-17T11:44:54.769Z,46.7
2017-08-17T11:45:56.402Z,47.7
2017-08-17T11:46:58.031Z,48.2
2017-08-17T11:47:59.672Z,49.1
2017-08-17T11:49:01.308Z,48.8
2017-08-17T11:50:02.940Z,48.5
2017-08-17T11:51:04.570Z,48.1
2017-08-17T11:52:06.203Z,47.7
2017-08-17T11:53:07.840Z,48.8
2017-08-17T11:54:09.481Z,48.5
2017-08-17T11:55:11.112Z,47.7
2017-08-17T11:56:12.749Z,48.1
2017-08-17T11:57:14.390Z,47.9
2017-08-17T11:58:16.017Z,47.6
2017-08-17T11:59:17.653Z,47.5
2017-08-17T12:00:19.284Z,46.2
2017-08-17T12:01:20.922Z,45.5
2017-08-17T12:02:22.562Z,44.8
2017-08-17T12:03:24.192Z,45.2
2017-08-17T12:04:25.837Z,46.9
2017-08-17T12:05:27.477Z,47.1
2017-08-17T12:06:29.108Z,48.5
2017-08-17T12:07:30.737Z,49.0
2017-08-17T12:08:32.369Z,48.6
2017-08-17T12:09:34.013Z,48.4
2017-08-17T12:10:35.650Z,48.7
2017-08-17T12:11:37.284Z,48.0
2017-08-17T12:12:38.927Z,48.0
2017-08-17T12:13:40.560Z,48.3
2017-08-17T12:14:42.190Z,46.9
2017-08-17T12:15:43.822Z,45.6
2017-08-17T12:16:45.455Z,45.2
2017-08-17T12:17:47.098Z,45.3
2017-08-17T12:18:48.735Z,46.0
2017-08-17T12:19:50.364Z,46.1
2017-08-17T12:20:51.998Z,45.9
2017-08-17T12:21:53.628Z,46.3
2017-08-17T12:22:55.271Z,46.4
2017-08-17T12:23:56.906Z,46.8
2017-08-17T12:24:58.547Z,46.0
2017-08-17T12:26:00.182Z,46.8
2017-08-17T12:27:01.816Z,46.2
2017-08-17T12:28:03.448Z,45.3
2017-08-17T12:29:05.076Z,45.6
2017-08-17T12:30:06.746Z,44.6
2017-08-17T12:31:08.379Z,43.8
2017-08-17T12:32:10.012Z,43.8
2017-08-17T12:33:11.648Z,42.7
2017-08-17T12:34:13.282Z,41.6
2017-08-17T12:35:14.922Z,41.7
2017-08-17T12:36:16.548Z,40.2
2017-08-17T12:37:18.179Z,42.4
2017-08-17T12:38:19.813Z,41.6
2017-08-17T12:39:21.452Z,42.7
2017-08-17T12:40:23.098Z,43.1
2017-08-17T12:41:24.730Z,43.1
2017-08-17T12:42:26.377Z,43.6
2017-08-17T12:43:28.003Z,43.2
2017-08-17T12:44:29.634Z,43.7
2017-08-17T12:45:31.267Z,44.7
2017-08-17T12:46:32.908Z,45.7
2017-08-17T12:47:34.551Z,46.1
2017-08-17T12:48:36.178Z,46.0
2017-08-17T12:49:37.810Z,46.9
2017-08-17T12:50:39.445Z,47.5
2017-08-17T12:51:41.084Z,47.6
2017-08-17T12:52:42.713Z,48.0
2017-08-17T12:53:44.346Z,48.7
2017-08-17T12:54:45.986Z,50.0
2017-08-17T12:55:47.618Z,50.9
2017-08-17T12:56:49.245Z,51.8
2017-08-17T12:57:50.876Z,51.0
2017-08-17T12:58:52.519Z,51.8
2017-08-17T12:59:54.152Z,52.4
2017-08-17T13:00:55.784Z,53.6
2017-08-17T13:01:57.430Z,54.6
2017-08-17T13:02:59.059Z,53.2
2017-08-17T13:04:00.690Z,52.4
2017-08-17T13:05:02.332Z,53.5
2017-08-17T13:06:03.958Z,52.4
2017-08-17T13:07:05.601Z,53.6
2017-08-17T13:08:07.236Z,52.6
2017-08-17T13:09:08.868Z,52.7
2017-08-17T13:10:10.503Z,51.9
2017-08-17T13:11:12.135Z,52.8
2017-08-17T13:12:13.773Z,53.7
2017-08-17T13:13:15.402Z,52.6
2017-08-17T13:14:17.032Z,52.6
2017-08-17T13:15:18.686Z,52.6
2017-08-17T13:16:20.312Z,52.6
2017-08-17T13:17:21.937Z,53.8
2017-08-17T13:18:25.753Z,53.4
2017-08-17T13:19:27.382Z,54.4
2017-08-17T13:20:29.011Z,53.5
2017-08-17T13:21:30.661Z,53.9
2017-08-17T13:22:33.526Z,54.0
2017-08-17T13:23:35.038Z,54.6
2017-08-17T13:24:36.676Z,55.1
2017-08-17T13:25:38.306Z,56.1
2017-08-17T13:26:39.936Z,56.4
2017-08-17T13:27:41.581Z,57.3
2017-08-17T13:28:43.211Z,57.4
2017-08-17T13:29:44.839Z,56.8
2017-08-17T13:30:46.470Z,56.8
2017-08-17T13:31:48.110Z,55.9
2017-08-17T13:32:49.747Z,56.1
2017-08-17T13:33:51.368Z,57.3
2017-08-17T13:34:53.013Z,57.7